Time;durP1;ratioP1;P1;durP2;ratioP2;P2;SDS_P1;SDS_P2;PMS_P1;PMS_P2;Temp;Humidity;BMP_temperature;BMP_pressure;BME280_temperature;BME280_humidity;BME280_pressure;Samples;Min_cycle;Max_cycle;Signal;HPM_P1;HPM_P2
2023/05/09 00:02:13;;;;;;;37.60;21.45;;;14.50;99.90;;;;;;4956832;28;20055;-71
2023/05/09 00:04:39;;;;;;;34.65;23.08;;;14.50;99.90;;;;;;4924269;28;21849;-71
2023/05/09 00:07:06;;;;;;;41.17;24.35;;;14.50;99.90;;;;;;4957375;28;20046;-71
2023/05/09 00:09:31;;;;;;;40.03;24.65;;;14.40;99.90;;;;;;4958467;28;20049;-71
2023/05/09 00:11:57;;;;;;;39.28;24.65;;;14.40;99.90;;;;;;4925622;28;20039;-71
2023/05/09 00:14:23;;;;;;;38.03;25.00;;;14.40;99.90;;;;;;4957160;28;20054;-71
2023/05/09 00:16:49;;;;;;;37.58;23.83;;;14.30;99.90;;;;;;4957880;28;20133;-71
2023/05/09 00:19:15;;;;;;;36.72;23.33;;;14.30;99.90;;;;;;4957402;28;20130;-71
2023/05/09 00:21:40;;;;;;;36.70;24.50;;;14.30;99.90;;;;;;4958995;28;20069;-72
2023/05/09 00:24:06;;;;;;;38.63;24.23;;;14.20;99.90;;;;;;4960105;28;20046;-72
2023/05/09 00:26:31;;;;;;;40.17;23.58;;;14.20;99.90;;;;;;4937537;28;20045;-71
2023/05/09 00:28:57;;;;;;;37.63;24.75;;;14.20;99.90;;;;;;4943164;28;20171;-72
2023/05/09 00:31:23;;;;;;;37.45;23.10;;;14.20;99.90;;;;;;4937519;28;20186;-72
2023/05/09 00:33:48;;;;;;;36.97;23.15;;;14.20;99.90;;;;;;4943219;28;20114;-71
2023/05/09 00:36:14;;;;;;;40.03;25.02;;;14.10;99.90;;;;;;4959582;28;20042;-72
2023/05/09 00:38:39;;;;;;;42.72;24.42;;;14.10;99.90;;;;;;4959631;28;20055;-70
2023/05/09 00:41:05;;;;;;;39.97;23.60;;;14.10;99.90;;;;;;4958265;28;20047;-71
2023/05/09 00:43:31;;;;;;;38.60;23.15;;;14.10;99.90;;;;;;4961006;28;20047;-70
2023/05/09 00:45:57;;;;;;;36.83;23.38;;;14.10;99.90;;;;;;4940654;28;20628;-71
2023/05/09 00:48:22;;;;;;;38.78;23.20;;;14.00;99.90;;;;;;4958883;28;20059;-72
2023/05/09 00:50:51;;;;;;;37.75;23.27;;;14.00;99.90;;;;;;4919451;28;20053;-71
2023/05/09 00:53:19;;;;;;;39.35;24.17;;;14.10;99.90;;;;;;4935805;28;20043;-72
2023/05/09 00:55:45;;;;;;;41.15;23.75;;;14.10;99.90;;;;;;4901349;28;20708;-71
2023/05/09 00:58:11;;;;;;;38.72;23.67;;;14.10;99.90;;;;;;4920424;28;20071;-71
2023/05/09 01:00:37;;;;;;;40.53;23.55;;;14.10;99.90;;;;;;4935332;28;20528;-70
2023/05/09 01:03:03;;;;;;;42.42;22.83;;;14.00;99.90;;;;;;4939241;28;20444;-70
2023/05/09 01:05:42;;;;;;;38.80;24.15;;;14.00;99.90;;;;;;4923266;28;20039;-71
2023/05/09 01:08:39;;;;;;;32.88;22.27;;;14.00;99.90;;;;;;4935648;28;20119;-70
2023/05/09 01:11:30;;;;;;;43.45;23.83;;;14.00;99.90;;;;;;4935772;28;20423;-71
2023/05/09 01:13:58;;;;;;;43.40;25.02;;;14.00;99.90;;;;;;4914403;28;20039;-71
2023/05/09 01:16:32;;;;;;;42.22;25.58;;;14.00;99.90;;;;;;4920518;29;20078;-71
2023/05/09 01:19:09;;;;;;;40.97;24.42;;;13.90;99.90;;;;;;4943079;28;20046;-71
2023/05/09 01:21:37;;;;;;;41.53;25.83;;;13.90;99.90;;;;;;4919495;28;20046;-71
2023/05/09 01:24:23;;;;;;;43.65;25.42;;;13.90;99.90;;;;;;4922165;28;20043;-72
2023/05/09 01:27:31;;;;;;;46.33;26.50;;;13.80;99.90;;;;;;4903653;28;20039;-71
2023/05/09 01:30:01;;;;;;;50.95;27.98;;;13.80;99.90;;;;;;4904756;28;20043;-72
2023/05/09 01:32:29;;;;;;;51.75;27.48;;;13.80;99.90;;;;;;4926479;28;20142;-71
2023/05/09 01:34:58;;;;;;;52.63;29.25;;;13.80;99.90;;;;;;4942984;28;20041;-72
2023/05/09 01:37:29;;;;;;;46.75;26.73;;;13.80;99.90;;;;;;4922854;29;20047;-72
2023/05/09 01:40:00;;;;;;;47.67;28.17;;;13.90;99.90;;;;;;4939709;28;20043;-72
2023/05/09 01:42:31;;;;;;;48.80;27.20;;;13.80;99.90;;;;;;4942728;28;20043;-72
2023/05/09 01:44:58;;;;;;;45.15;25.50;;;13.80;99.90;;;;;;4923928;28;20510;-71
2023/05/09 01:47:25;;;;;;;49.17;27.88;;;13.90;99.90;;;;;;4944165;28;20040;-71
2023/05/09 01:49:51;;;;;;;54.22;29.25;;;13.80;99.90;;;;;;4938065;28;20041;-71
2023/05/09 01:52:19;;;;;;;48.70;27.50;;;13.80;99.90;;;;;;4955677;28;20039;-71
2023/05/09 01:54:46;;;;;;;50.78;28.90;;;13.80;99.90;;;;;;4960527;28;20534;-72
2023/05/09 01:57:13;;;;;;;50.40;27.42;;;13.90;99.90;;;;;;4961741;28;20051;-71
2023/05/09 01:59:41;;;;;;;45.22;26.00;;;13.90;99.90;;;;;;4963865;28;20186;-72
2023/05/09 02:02:07;;;;;;;54.10;29.60;;;13.90;99.90;;;;;;4946124;28;20050;-72
2023/05/09 02:04:35;;;;;;;51.53;28.08;;;13.90;99.90;;;;;;4956386;28;20529;-72
2023/05/09 02:07:02;;;;;;;49.75;27.60;;;13.90;99.90;;;;;;4959260;28;20042;-71
2023/05/09 02:09:28;;;;;;;46.85;27.50;;;13.90;99.90;;;;;;4941032;28;20047;-72
2023/05/09 02:11:54;;;;;;;47.35;28.00;;;14.00;99.90;;;;;;4960112;28;20384;-72
2023/05/09 02:14:19;;;;;;;52.97;29.25;;;14.00;99.90;;;;;;4958803;28;20426;-72
2023/05/09 02:16:45;;;;;;;50.13;28.60;;;14.00;99.90;;;;;;4938742;28;20074;-72
2023/05/09 02:19:10;;;;;;;50.00;26.88;;;14.00;99.90;;;;;;4942574;28;20138;-72
2023/05/09 02:21:36;;;;;;;52.08;28.58;;;14.00;99.90;;;;;;4941070;28;20074;-72
2023/05/09 02:24:02;;;;;;;53.65;28.60;;;14.00;99.90;;;;;;4944903;28;20063;-71
2023/05/09 02:26:29;;;;;;;47.70;27.80;;;14.00;99.90;;;;;;4941612;28;20053;-71
2023/05/09 02:28:56;;;;;;;52.80;29.45;;;14.00;99.90;;;;;;4927621;28;20035;-71
2023/05/09 02:31:24;;;;;;;54.58;28.50;;;14.10;99.90;;;;;;4944781;28;20031;-71
2023/05/09 02:33:52;;;;;;;52.08;29.33;;;14.10;99.90;;;;;;4940508;28;20038;-72
2023/05/09 02:36:18;;;;;;;51.97;28.50;;;14.10;99.90;;;;;;4965678;28;20046;-72
2023/05/09 02:38:44;;;;;;;51.83;28.35;;;14.10;99.90;;;;;;4957348;28;20388;-71
2023/05/09 02:41:16;;;;;;;51.85;29.63;;;14.10;99.90;;;;;;4960379;28;20046;-71
2023/05/09 02:43:42;;;;;;;56.65;30.65;;;14.10;99.90;;;;;;4962381;28;20399;-72
2023/05/09 02:46:09;;;;;;;60.35;30.65;;;14.10;99.90;;;;;;4959471;28;20509;-71
2023/05/09 02:48:35;;;;;;;50.90;29.90;;;14.10;99.90;;;;;;4956945;28;20050;-71
2023/05/09 02:51:01;;;;;;;55.42;29.92;;;14.10;99.90;;;;;;4944439;28;20047;-71
2023/05/09 02:53:27;;;;;;;53.85;29.45;;;14.10;99.90;;;;;;4955622;28;20584;-72
2023/05/09 02:55:53;;;;;;;53.92;30.45;;;14.10;99.90;;;;;;4957423;28;20190;-72
2023/05/09 02:58:19;;;;;;;63.50;31.25;;;14.10;99.90;;;;;;4943985;28;20403;-73
2023/05/09 03:00:45;;;;;;;59.78;31.88;;;14.10;99.90;;;;;;4942167;28;20046;-72
2023/05/09 03:03:11;;;;;;;56.97;31.17;;;14.10;99.90;;;;;;4938714;28;20043;-72
2023/05/09 03:05:36;;;;;;;62.00;32.33;;;14.10;99.90;;;;;;4944736;28;20097;-71
2023/05/09 03:08:02;;;;;;;54.95;30.27;;;14.00;99.90;;;;;;4938316;28;20058;-71
2023/05/09 03:10:28;;;;;;;58.33;31.20;;;14.10;99.90;;;;;;4960340;28;20055;-71
2023/05/09 03:12:54;;;;;;;61.45;31.33;;;14.00;99.90;;;;;;4962617;28;20414;-71
2023/05/09 03:15:20;;;;;;;60.22;31.95;;;14.00;99.90;;;;;;4956191;28;20061;-71
2023/05/09 03:17:46;;;;;;;61.30;30.88;;;14.00;99.90;;;;;;4944054;28;20051;-72
2023/05/09 03:20:12;;;;;;;60.97;32.97;;;14.00;99.90;;;;;;4940872;28;20078;-72
2023/05/09 03:22:38;;;;;;;61.45;32.75;;;14.00;99.90;;;;;;4954824;28;20054;-72
2023/05/09 03:25:05;;;;;;;57.35;31.98;;;14.00;99.90;;;;;;4939076;28;20043;-72
2023/05/09 03:27:31;;;;;;;65.53;33.47;;;14.00;99.90;;;;;;4941113;28;20531;-72
2023/05/09 03:29:57;;;;;;;60.70;32.38;;;14.00;99.90;;;;;;4925789;28;20034;-72
2023/05/09 03:32:22;;;;;;;65.57;32.90;;;13.90;99.90;;;;;;4935240;28;20047;-72
2023/05/09 03:34:48;;;;;;;65.53;33.47;;;14.00;99.90;;;;;;4944189;28;20091;-71
2023/05/09 03:37:14;;;;;;;61.72;32.72;;;13.90;99.90;;;;;;4958029;28;20055;-72
2023/05/09 03:39:39;;;;;;;64.55;32.88;;;14.00;99.90;;;;;;4960014;28;20255;-72
2023/05/09 03:42:05;;;;;;;63.00;33.33;;;13.90;99.90;;;;;;4941240;28;20185;-72
2023/05/09 03:44:31;;;;;;;64.40;33.47;;;13.90;99.90;;;;;;4960823;28;20231;-72
2023/05/09 03:46:56;;;;;;;66.65;33.08;;;13.90;99.90;;;;;;4927147;28;20039;-71
2023/05/09 03:49:22;;;;;;;61.17;31.55;;;14.00;99.90;;;;;;4936618;28;20043;-72
2023/05/09 03:51:47;;;;;;;61.42;32.15;;;14.00;99.90;;;;;;4904366;29;20103;-72
2023/05/09 03:54:13;;;;;;;69.13;35.20;;;14.00;99.90;;;;;;4939266;28;20060;-72
2023/05/09 03:56:39;;;;;;;70.95;34.03;;;14.00;99.90;;;;;;4935704;28;20471;-71
2023/05/09 03:59:04;;;;;;;64.40;34.90;;;14.00;99.90;;;;;;4939721;28;20111;-71
2023/05/09 04:01:30;;;;;;;68.07;36.13;;;14.00;99.90;;;;;;4917084;28;20063;-71
2023/05/09 04:03:58;;;;;;;66.50;33.90;;;14.00;99.90;;;;;;4916047;28;20744;-71
2023/05/09 04:06:24;;;;;;;65.65;34.55;;;14.00;99.90;;;;;;4922447;29;20069;-71
2023/05/09 04:08:50;;;;;;;65.95;34.03;;;14.00;99.90;;;;;;4937392;28;20044;-72
2023/05/09 04:11:15;;;;;;;66.05;33.92;;;14.00;99.90;;;;;;4935712;28;20035;-71
2023/05/09 04:13:41;;;;;;;70.40;35.47;;;14.00;99.90;;;;;;4907146;29;20098;-71
2023/05/09 04:16:07;;;;;;;63.58;33.22;;;14.00;99.90;;;;;;4920462;29;20090;-71
2023/05/09 04:18:32;;;;;;;70.68;34.58;;;14.00;99.90;;;;;;4919929;29;20169;-70
2023/05/09 04:20:58;;;;;;;69.00;35.17;;;14.10;99.90;;;;;;4919425;28;20526;-71
2023/05/09 04:23:24;;;;;;;73.70;35.47;;;14.10;99.90;;;;;;4921455;28;20513;-72
2023/05/09 04:25:53;;;;;;;69.55;35.05;;;14.10;99.90;;;;;;4922303;29;20048;-72
2023/05/09 04:28:18;;;;;;;65.47;34.60;;;14.10;99.90;;;;;;4904230;29;20043;-72
2023/05/09 04:30:44;;;;;;;67.47;33.63;;;14.10;99.90;;;;;;4906557;29;20213;-72
2023/05/09 04:33:10;;;;;;;70.10;34.40;;;14.10;99.90;;;;;;4921406;29;20125;-72
2023/05/09 04:35:36;;;;;;;68.93;34.63;;;14.10;99.90;;;;;;4921811;29;20082;-71
2023/05/09 04:38:03;;;;;;;64.97;34.30;;;14.10;99.90;;;;;;4938306;29;20043;-73
2023/05/09 04:40:29;;;;;;;72.10;36.85;;;14.10;99.90;;;;;;4920515;29;20042;-71
2023/05/09 04:42:56;;;;;;;70.57;35.83;;;14.10;99.90;;;;;;4916071;29;20051;-71
2023/05/09 04:45:22;;;;;;;74.63;36.97;;;14.10;99.90;;;;;;4933889;28;20047;-72
2023/05/09 04:47:47;;;;;;;76.53;36.90;;;14.10;99.90;;;;;;4936607;29;20043;-71
2023/05/09 04:50:13;;;;;;;76.65;36.13;;;14.10;99.90;;;;;;4952871;28;20047;-72
2023/05/09 04:52:38;;;;;;;84.35;38.47;;;14.10;99.90;;;;;;4955519;28;20549;-72
2023/05/09 04:55:05;;;;;;;75.30;36.10;;;14.10;99.90;;;;;;4941429;28;20078;-72
2023/05/09 04:57:30;;;;;;;69.25;36.92;;;14.10;99.90;;;;;;4958905;28;20050;-73
2023/05/09 04:59:56;;;;;;;76.30;37.20;;;14.10;99.90;;;;;;4938976;28;20336;-71
2023/05/09 05:02:23;;;;;;;72.90;37.35;;;14.10;99.90;;;;;;4936514;28;20047;-71
2023/05/09 05:04:49;;;;;;;74.05;36.45;;;14.10;99.90;;;;;;4956537;28;20049;-71
2023/05/09 05:07:15;;;;;;;75.07;37.03;;;14.10;99.90;;;;;;4941792;28;20051;-70
2023/05/09 05:09:40;;;;;;;74.50;36.85;;;14.10;99.90;;;;;;4941843;28;20053;-72
2023/05/09 05:12:07;;;;;;;73.97;38.38;;;14.20;99.90;;;;;;4918835;28;20491;-72
2023/05/09 05:14:33;;;;;;;78.30;37.53;;;14.20;99.90;;;;;;4935352;28;20494;-72
2023/05/09 05:16:59;;;;;;;78.00;37.97;;;14.20;99.90;;;;;;4938436;28;20049;-72
2023/05/09 05:19:24;;;;;;;76.53;38.40;;;14.30;99.90;;;;;;4926714;28;20943;-72
2023/05/09 05:21:50;;;;;;;77.85;39.75;;;14.30;99.90;;;;;;4951676;28;20092;-72
2023/05/09 05:24:16;;;;;;;79.93;38.72;;;14.40;99.90;;;;;;4953582;28;20094;-71
2023/05/09 05:26:41;;;;;;;77.07;38.47;;;14.40;99.90;;;;;;4954752;28;20058;-72
2023/05/09 05:29:07;;;;;;;82.05;40.17;;;14.50;99.90;;;;;;4939905;28;20446;-71
2023/05/09 05:31:33;;;;;;;83.65;42.03;;;14.60;99.90;;;;;;4937463;28;20122;-72
2023/05/09 05:33:58;;;;;;;85.18;41.17;;;14.60;99.90;;;;;;4931351;28;20493;-72
2023/05/09 05:36:24;;;;;;;78.93;39.33;;;14.70;99.90;;;;;;4932624;28;20098;-71
2023/05/09 05:38:50;;;;;;;84.97;41.45;;;14.70;99.90;;;;;;4939169;28;20057;-71
2023/05/09 05:41:16;;;;;;;88.35;42.90;;;14.70;99.90;;;;;;4953999;28;20516;-71
2023/05/09 05:43:41;;;;;;;90.40;43.67;;;14.70;99.90;;;;;;4954716;28;20184;-71
2023/05/09 05:46:07;;;;;;;89.30;44.92;;;14.70;99.90;;;;;;4921256;28;20055;-71
2023/05/09 05:48:33;;;;;;;84.78;43.53;;;14.70;99.90;;;;;;4957627;28;20133;-72
2023/05/09 05:50:58;;;;;;;83.22;41.03;;;14.70;99.90;;;;;;4933786;28;20692;-70
2023/05/09 05:53:24;;;;;;;93.10;44.97;;;14.70;99.90;;;;;;4937953;28;20049;-73
2023/05/09 05:55:49;;;;;;;92.57;44.60;;;14.80;99.90;;;;;;4961669;28;20085;-73
2023/05/09 05:58:15;;;;;;;90.72;46.08;;;14.80;99.90;;;;;;4957420;28;20101;-71
2023/05/09 06:00:41;;;;;;;86.45;43.08;;;14.80;99.90;;;;;;4954155;28;20047;-71
2023/05/09 06:03:07;;;;;;;89.75;45.33;;;14.80;99.90;;;;;;4961612;28;20518;-72
2023/05/09 06:05:33;;;;;;;86.68;44.70;;;14.80;99.90;;;;;;4933171;28;20051;-71
2023/05/09 06:07:58;;;;;;;85.47;44.25;;;14.90;99.90;;;;;;4963251;28;20045;-70
2023/05/09 06:10:24;;;;;;;90.20;46.45;;;14.90;99.90;;;;;;4958763;28;20047;-70
2023/05/09 06:12:50;;;;;;;87.93;45.53;;;15.00;99.90;;;;;;4932135;28;20047;-71
2023/05/09 06:15:15;;;;;;;84.72;44.97;;;15.00;99.90;;;;;;4952776;28;20039;-71
2023/05/09 06:17:41;;;;;;;88.75;47.75;;;15.10;99.90;;;;;;4905888;28;20058;-71
2023/05/09 06:20:07;;;;;;;89.72;47.10;;;15.10;99.90;;;;;;4966750;28;20054;-73
2023/05/09 06:22:32;;;;;;;85.90;46.28;;;15.20;99.90;;;;;;4931263;28;20059;-72
2023/05/09 06:24:58;;;;;;;83.82;45.70;;;15.20;99.90;;;;;;4961563;28;20128;-73
2023/05/09 06:27:24;;;;;;;84.65;45.88;;;15.20;99.90;;;;;;4964922;28;20140;-72
2023/05/09 06:29:51;;;;;;;80.50;43.95;;;15.20;99.90;;;;;;4947680;28;20047;-73
2023/05/09 06:32:17;;;;;;;93.50;47.28;;;15.20;99.90;;;;;;4954564;28;20129;-72
2023/05/09 06:34:43;;;;;;;94.50;48.88;;;15.30;99.90;;;;;;4951864;28;20505;-72
2023/05/09 06:37:08;;;;;;;90.75;48.60;;;15.30;99.90;;;;;;4959831;28;20440;-73
2023/05/09 06:39:34;;;;;;;97.68;48.45;;;15.40;99.90;;;;;;4961706;28;20490;-72
2023/05/09 06:42:00;;;;;;;101.97;50.05;;;15.30;99.90;;;;;;4958154;28;20130;-73
2023/05/09 06:44:25;;;;;;;96.78;49.13;;;15.40;99.90;;;;;;4943408;28;20035;-73
2023/05/09 06:46:51;;;;;;;98.65;48.97;;;15.40;99.90;;;;;;4962088;28;20050;-74
2023/05/09 06:49:16;;;;;;;98.43;50.10;;;15.50;99.90;;;;;;4927832;29;20527;-71
2023/05/09 06:51:42;;;;;;;92.70;48.67;;;15.50;99.90;;;;;;4936859;29;20530;-70
2023/05/09 06:54:08;;;;;;;93.45;49.33;;;15.50;99.90;;;;;;4920537;29;21282;-72
2023/05/09 06:56:33;;;;;;;100.30;50.90;;;15.40;99.90;;;;;;4926926;29;20036;-71
2023/05/09 06:58:59;;;;;;;93.53;49.65;;;15.50;99.90;;;;;;4920943;29;20047;-71
2023/05/09 07:01:25;;;;;;;93.38;48.17;;;15.50;99.90;;;;;;4938477;29;20043;-70
2023/05/09 07:03:50;;;;;;;92.22;49.08;;;15.60;99.90;;;;;;4909728;29;20039;-71
2023/05/09 07:06:16;;;;;;;94.65;49.28;;;15.60;99.90;;;;;;4937680;28;20199;-70
2023/05/09 07:08:42;;;;;;;93.28;50.13;;;15.60;99.90;;;;;;4905503;29;20040;-71
2023/05/09 07:11:07;;;;;;;94.50;48.20;;;15.70;99.90;;;;;;4924420;29;20531;-71
2023/05/09 07:13:33;;;;;;;89.53;46.17;;;15.70;99.90;;;;;;4938840;28;20154;-71
2023/05/09 07:15:59;;;;;;;98.53;49.10;;;15.80;99.90;;;;;;4916897;28;20039;-71
2023/05/09 07:18:24;;;;;;;88.70;47.67;;;15.80;99.90;;;;;;4939186;28;20488;-71
2023/05/09 07:20:50;;;;;;;83.15;45.60;;;15.80;99.90;;;;;;4938763;29;20042;-72
2023/05/09 07:23:16;;;;;;;84.43;47.72;;;15.80;99.90;;;;;;4922614;29;20051;-72
2023/05/09 07:25:42;;;;;;;75.35;43.03;;;15.80;99.90;;;;;;4923639;29;20085;-71
2023/05/09 07:28:10;;;;;;;76.03;42.33;;;15.80;99.90;;;;;;4922703;29;20095;-72
2023/05/09 07:30:35;;;;;;;76.07;43.00;;;15.80;99.90;;;;;;4928609;29;20546;-72
2023/05/09 07:33:01;;;;;;;79.22;44.25;;;15.80;99.90;;;;;;4929613;29;20051;-72
2023/05/09 07:35:27;;;;;;;78.15;43.53;;;15.80;99.90;;;;;;4943164;29;20134;-72
2023/05/09 07:37:52;;;;;;;76.97;42.95;;;15.80;99.90;;;;;;4918013;29;20880;-73
2023/05/09 07:40:18;;;;;;;76.75;40.47;;;15.80;99.90;;;;;;4908335;29;20047;-72
2023/05/09 07:42:48;;;;;;;74.00;42.22;;;15.80;99.90;;;;;;4914323;29;20097;-72
2023/05/09 07:45:14;;;;;;;76.05;45.17;;;15.80;99.90;;;;;;4912940;29;20063;-73
2023/05/09 07:47:40;;;;;;;76.13;43.58;;;15.80;99.90;;;;;;4915057;29;20050;-73
2023/05/09 07:50:06;;;;;;;79.50;43.05;;;15.80;99.90;;;;;;4924456;28;20702;-73
2023/05/09 07:52:32;;;;;;;79.15;44.38;;;15.80;99.90;;;;;;4953729;28;20034;-72
2023/05/09 07:54:58;;;;;;;67.13;39.90;;;15.80;99.90;;;;;;4955814;28;20073;-73
2023/05/09 07:57:23;;;;;;;76.03;42.10;;;15.80;99.90;;;;;;4955188;28;20050;-73
2023/05/09 07:59:49;;;;;;;67.47;40.55;;;15.70;99.90;;;;;;4937608;28;20070;-72
2023/05/09 08:02:15;;;;;;;70.28;39.58;;;15.70;99.90;;;;;;4958518;28;20062;-73
2023/05/09 08:04:40;;;;;;;70.60;41.67;;;15.80;99.90;;;;;;4956375;28;20072;-73
2023/05/09 08:07:07;;;;;;;74.97;40.92;;;15.80;99.90;;;;;;4934170;28;20099;-73
2023/05/09 08:09:33;;;;;;;64.18;37.95;;;15.80;99.90;;;;;;4956402;28;20042;-72
2023/05/09 08:11:59;;;;;;;65.80;38.13;;;15.80;99.90;;;;;;4956807;28;20047;-72
2023/05/09 08:14:25;;;;;;;67.20;38.67;;;15.90;99.90;;;;;;4957217;28;20041;-73
2023/05/09 08:16:50;;;;;;;59.50;36.53;;;15.80;99.90;;;;;;4959157;28;20136;-73
2023/05/09 08:19:16;;;;;;;63.15;37.53;;;15.90;99.90;;;;;;4948841;28;20043;-74
2023/05/09 08:21:41;;;;;;;62.67;34.63;;;15.90;99.90;;;;;;4957991;28;20052;-73
2023/05/09 08:24:08;;;;;;;59.00;34.22;;;15.90;99.90;;;;;;4955815;28;20518;-73
2023/05/09 08:26:34;;;;;;;59.25;36.28;;;15.90;99.90;;;;;;4958976;28;20498;-73
2023/05/09 08:29:00;;;;;;;58.15;34.95;;;16.00;99.90;;;;;;4953877;28;20035;-73
2023/05/09 08:31:26;;;;;;;53.13;33.90;;;16.00;99.90;;;;;;4953167;28;20047;-73
2023/05/09 08:33:52;;;;;;;55.20;34.30;;;16.00;99.90;;;;;;4940255;28;20051;-72
2023/05/09 08:36:18;;;;;;;53.75;31.65;;;16.10;99.90;;;;;;4925760;28;20415;-73
2023/05/09 08:38:43;;;;;;;47.78;30.88;;;16.10;99.90;;;;;;4932286;28;20043;-73
2023/05/09 08:41:09;;;;;;;50.65;30.55;;;16.20;99.90;;;;;;4956226;28;20038;-73
2023/05/09 08:43:35;;;;;;;47.78;29.30;;;16.20;99.90;;;;;;4941161;28;20241;-73
2023/05/09 08:46:11;;;;;;;50.65;30.27;;;16.30;99.90;;;;;;4956538;28;20484;-74
2023/05/09 08:48:38;;;;;;;52.70;32.13;;;16.30;99.90;;;;;;4938159;28;20035;-74
2023/05/09 08:51:05;;;;;;;47.38;29.88;;;16.30;99.90;;;;;;4958862;28;20088;-73
2023/05/09 08:53:32;;;;;;;49.20;30.98;;;16.50;99.90;;;;;;4942207;28;20134;-74
2023/05/09 08:56:02;;;;;;;50.00;31.15;;;16.50;99.90;;;;;;4936735;28;20039;-73
2023/05/09 08:58:30;;;;;;;44.33;29.13;;;16.60;99.90;;;;;;4922316;28;20318;-73
2023/05/09 09:00:55;;;;;;;44.53;26.92;;;16.70;99.90;;;;;;4951997;28;20043;-73
2023/05/09 09:03:23;;;;;;;45.95;25.48;;;16.60;99.90;;;;;;4952472;28;20078;-73
2023/05/09 09:05:50;;;;;;;38.47;25.33;;;16.60;99.90;;;;;;4927210;28;20061;-73
2023/05/09 09:08:17;;;;;;;41.15;25.48;;;16.60;99.90;;;;;;4957439;28;20047;-73
2023/05/09 09:10:46;;;;;;;40.17;25.05;;;16.60;99.90;;;;;;4958579;28;20051;-72
2023/05/09 09:13:13;;;;;;;40.90;23.83;;;16.60;99.90;;;;;;4955484;28;20051;-72
2023/05/09 09:15:41;;;;;;;43.35;25.67;;;16.70;99.90;;;;;;4946155;28;20222;-72
2023/05/09 09:18:10;;;;;;;42.85;25.88;;;16.80;99.90;;;;;;4939070;28;20039;-73
2023/05/09 09:20:50;;;;;;;37.45;24.02;;;16.90;99.90;;;;;;4941623;28;20103;-72
2023/05/09 09:23:19;;;;;;;39.08;24.27;;;17.00;99.90;;;;;;4956125;28;20054;-73
2023/05/09 09:25:55;;;;;;;36.03;23.88;;;17.00;99.90;;;;;;4935725;28;20471;-72
2023/05/09 09:28:21;;;;;;;36.83;23.17;;;17.00;99.90;;;;;;4938742;28;20059;-72
2023/05/09 09:30:47;;;;;;;34.22;21.10;;;17.00;99.90;;;;;;4938457;28;20499;-72
2023/05/09 09:33:20;;;;;;;35.40;22.65;;;17.00;99.90;;;;;;4953572;28;20046;-72
2023/05/09 09:35:51;;;;;;;33.05;21.02;;;17.10;99.90;;;;;;4953033;28;20457;-72
2023/05/09 09:38:23;;;;;;;33.13;20.60;;;17.10;99.90;;;;;;4942004;28;20034;-72
2023/05/09 09:40:54;;;;;;;31.55;20.02;;;17.10;99.90;;;;;;4938882;28;20035;-72
2023/05/09 09:43:20;;;;;;;33.83;21.58;;;17.20;99.90;;;;;;4944666;28;20137;-72
2023/05/09 09:45:50;;;;;;;28.80;19.13;;;17.20;99.90;;;;;;4939029;28;20525;-72
2023/05/09 09:48:15;;;;;;;30.00;20.73;;;17.20;99.90;;;;;;4925409;28;20402;-73
2023/05/09 09:50:41;;;;;;;35.22;21.40;;;17.10;99.90;;;;;;4958786;28;20503;-73
2023/05/09 09:53:07;;;;;;;29.83;21.58;;;17.20;99.90;;;;;;4940737;28;20055;-74
2023/05/09 09:55:33;;;;;;;32.63;22.30;;;17.10;99.90;;;;;;4961651;28;20094;-72
2023/05/09 09:57:59;;;;;;;30.88;22.10;;;17.20;99.90;;;;;;4943285;28;20039;-73
2023/05/09 10:00:26;;;;;;;33.22;21.52;;;17.10;99.90;;;;;;4941442;28;20082;-73
2023/05/09 10:02:53;;;;;;;32.00;20.73;;;17.10;99.90;;;;;;4964751;28;20066;-73
2023/05/09 10:05:23;;;;;;;30.60;20.48;;;17.10;99.90;;;;;;4923546;28;20043;-72
2023/05/09 10:07:52;;;;;;;34.08;22.40;;;17.10;99.90;;;;;;4944779;28;20138;-74
2023/05/09 10:10:18;;;;;;;32.13;22.73;;;17.10;99.90;;;;;;4958108;28;20048;-73
2023/05/09 10:12:45;;;;;;;33.28;23.27;;;17.10;99.90;;;;;;4960780;28;20070;-73
2023/05/09 10:15:15;;;;;;;36.63;24.02;;;17.10;99.90;;;;;;4957283;28;20042;-73
2023/05/09 10:17:41;;;;;;;33.10;20.95;;;17.10;99.90;;;;;;4929442;28;20123;-73
2023/05/09 10:20:08;;;;;;;32.97;21.85;;;17.10;99.90;;;;;;4957902;28;20375;-74
2023/05/09 10:22:37;;;;;;;33.72;22.40;;;17.10;99.90;;;;;;4944034;28;20182;-73
2023/05/09 10:25:16;;;;;;;33.42;22.15;;;17.10;99.90;;;;;;4959607;28;20103;-74
2023/05/09 10:27:45;;;;;;;30.38;22.20;;;17.10;99.90;;;;;;4943138;28;20299;-73
2023/05/09 10:30:18;;;;;;;32.83;22.42;;;17.00;99.90;;;;;;4942220;28;20039;-73
2023/05/09 10:33:01;;;;;;;29.77;21.25;;;17.00;99.90;;;;;;4938892;28;20050;-72
2023/05/09 10:35:32;;;;;;;26.73;19.10;;;16.80;99.90;;;;;;4957051;28;20059;-72
2023/05/09 10:38:00;;;;;;;31.23;20.23;;;16.70;99.90;;;;;;4956651;28;20085;-72
2023/05/09 10:40:27;;;;;;;31.80;22.20;;;16.70;99.90;;;;;;4956142;28;20054;-74
2023/05/09 10:42:53;;;;;;;31.23;20.83;;;16.60;99.90;;;;;;4959392;28;20047;-73
2023/05/09 10:45:20;;;;;;;26.70;20.33;;;16.50;99.90;;;;;;4936797;28;20055;-74
2023/05/09 10:47:48;;;;;;;27.60;19.65;;;16.50;99.90;;;;;;4959593;28;20042;-73
2023/05/09 10:50:15;;;;;;;28.15;20.77;;;16.40;99.90;;;;;;4956129;28;20035;-71
2023/05/09 10:53:16;;;;;;;26.83;21.02;;;16.40;99.90;;;;;;4958945;28;20103;-71
2023/05/09 10:56:01;;;;;;;27.20;20.35;;;16.40;99.90;;;;;;4960436;28;20058;-72
2023/05/09 10:58:29;;;;;;;27.77;20.45;;;16.40;99.90;;;;;;4962705;28;20042;-72
2023/05/09 11:00:56;;;;;;;29.20;20.77;;;16.40;99.90;;;;;;4944470;28;20042;-73
2023/05/09 11:03:27;;;;;;;25.25;20.42;;;16.50;99.90;;;;;;4956702;28;20095;-71
2023/05/09 11:05:57;;;;;;;25.92;19.42;;;16.50;99.90;;;;;;4927218;28;20047;-72
2023/05/09 11:08:27;;;;;;;25.30;18.80;;;16.60;99.90;;;;;;4931836;28;20104;-73
2023/05/09 11:10:59;;;;;;;20.98;16.30;;;16.60;99.90;;;;;;4959836;28;20046;-74
2023/05/09 11:13:29;;;;;;;20.05;16.10;;;16.60;99.90;;;;;;4938560;28;20043;-73
2023/05/09 11:15:58;;;;;;;21.52;17.02;;;16.50;99.90;;;;;;4956778;28;20039;-73
2023/05/09 11:18:23;;;;;;;22.70;18.08;;;16.50;99.90;;;;;;4959237;28;20043;-73
2023/05/09 11:20:50;;;;;;;24.90;17.95;;;16.50;99.90;;;;;;4960005;28;20043;-72
2023/05/09 11:23:20;;;;;;;26.20;19.05;;;16.40;99.90;;;;;;4939186;28;20047;-72
2023/05/09 11:25:47;;;;;;;25.63;18.23;;;16.50;99.90;;;;;;4962457;28;20090;-72
2023/05/09 11:28:30;;;;;;;22.77;18.60;;;16.50;99.90;;;;;;4956070;28;20047;-74
2023/05/09 11:31:15;;;;;;;23.65;18.80;;;16.50;99.90;;;;;;4961776;28;20139;-73
2023/05/09 11:33:44;;;;;;;26.02;20.27;;;16.40;99.90;;;;;;4954576;28;20344;-73
2023/05/09 11:36:17;;;;;;;25.13;19.98;;;16.40;99.90;;;;;;4959957;28;20049;-73
2023/05/09 11:38:45;;;;;;;27.48;21.35;;;16.30;99.90;;;;;;4938793;28;20112;-73
2023/05/09 11:41:10;;;;;;;29.17;20.90;;;16.30;99.90;;;;;;4939060;28;20271;-72
2023/05/09 11:43:37;;;;;;;26.85;20.73;;;16.30;99.90;;;;;;4957109;28;20187;-72
2023/05/09 11:46:03;;;;;;;27.02;20.10;;;16.20;99.90;;;;;;4930598;28;20214;-73
2023/05/09 11:48:29;;;;;;;30.42;21.23;;;16.20;99.90;;;;;;4959033;28;20080;-73
2023/05/09 11:50:55;;;;;;;26.60;19.38;;;16.20;99.90;;;;;;4961231;28;20067;-73
2023/05/09 11:53:20;;;;;;;23.73;18.67;;;16.20;99.90;;;;;;4955768;28;20047;-71
2023/05/09 11:55:46;;;;;;;22.77;18.52;;;16.20;99.90;;;;;;4956359;28;20081;-78
2023/05/09 11:58:12;;;;;;;23.45;19.60;;;16.30;99.90;;;;;;4956630;28;20049;-72
2023/05/09 12:00:44;;;;;;;26.30;18.88;;;16.30;99.90;;;;;;4944586;28;20091;-72
2023/05/09 12:03:11;;;;;;;21.52;18.20;;;16.40;99.90;;;;;;4955714;28;20043;-73
2023/05/09 12:05:41;;;;;;;23.33;18.13;;;16.40;99.90;;;;;;4924316;28;20035;-73
2023/05/09 12:08:08;;;;;;;19.88;16.08;;;16.50;99.90;;;;;;4939488;28;20741;-73
2023/05/09 12:10:37;;;;;;;22.63;17.48;;;16.50;99.90;;;;;;4938728;28;20042;-72
2023/05/09 12:13:03;;;;;;;23.45;16.63;;;16.60;99.90;;;;;;4944289;28;20042;-72
2023/05/09 12:15:34;;;;;;;22.85;14.65;;;16.60;99.90;;;;;;4939442;28;20047;-74
2023/05/09 12:18:04;;;;;;;17.92;15.38;;;16.60;99.90;;;;;;4940107;28;20125;-73
2023/05/09 12:20:49;;;;;;;19.67;15.35;;;16.60;99.90;;;;;;4955107;28;20071;-72
2023/05/09 12:23:15;;;;;;;31.25;20.92;;;16.50;99.90;;;;;;4936947;28;20051;-73
2023/05/09 12:25:56;;;;;;;23.45;16.75;;;16.50;99.90;;;;;;4954439;28;20092;-72
2023/05/09 12:28:23;;;;;;;25.83;17.48;;;16.40;99.90;;;;;;4936589;28;20425;-72